M I D A S
Marine Information and Data Acquisition System
Tripno 528 of the Zeeleeuw from 2003-07-01 06:19:53 to 2003-07-01 10:12:15
Back to CruiseResearch ActivitiesStationsMapUnderway DataData graphs

EquipmentUnitsComment
TimeDGPSUTC
LatitudeDGPSDM.mWGS84
LongitudeDGPSDM.mWGS84
TemperatureSBE03/SBE38deg celciusITS90
ConductivitySBE21S/mITS90
SalinitySBE21 Practical Salinity Units
ChlorophylAChelsea fluorimeterg/lCalibrated in Aceton
Missing or incorrect values are displayed as -999
Sea surface data collected by the RV Zeeleeuw from 2003-07-01 06:19:53 to 2003-07-01 10:12:15
Time Latitude Longitude Temperature Conductivity Salinity ChlorophylA
2003-07-01 06:20:57 51°13.6 2°56.1 33.322685 0.69824 4.164334 -0.545283
2003-07-01 06:21:57 51°13.6 2°56.1 32.043678 0.698135 4.163932 -0.545283
2003-07-01 06:22:57 51°13.6 2°56.1 31.85185 0.698031 4.163597 -0.578993
2003-07-01 06:24:01 51°13.62 2°56.02 32.22396 0.697927 4.163062 -0.545283
2003-07-01 06:25:01 51°13.65 2°55.91 32.115341 0.698449 4.166663 -0.545283
2003-07-01 06:26:01 51°13.68 2°55.81 33.061999 0.69824 4.165528 -0.578993
2003-07-01 06:26:57 51°13.68 2°55.76 32.714184 0.698658 4.168729 -0.578993
2003-07-01 06:27:57 51°13.7 2°55.76 32.601819 0.698344 4.167125 -0.545283
2003-07-01 06:28:57 51°13.75 2°55.72 32.804312 0.698136 4.166189 -0.545283
2003-07-01 06:29:57 51°13.84 2°55.62 32.810026 0.698031 4.165854 -0.578993
2003-07-01 06:30:57 51°13.97 2°55.53 31.640378 0.697822 4.164519 -0.545283
2003-07-01 06:31:57 51°14.09 2°55.44 31.726906 0.697822 4.16525 -0.578993
2003-07-01 06:32:57 51°14.21 2°55.33 32.352309 0.697718 4.164914 -0.578993
2003-07-01 06:33:57 51°14.32 2°55.15 32.358194 0.697718 4.165247 -0.578993
2003-07-01 06:34:57 51°14.42 2°54.95 31.718316 0.697613 4.164579 -0.545283
2003-07-01 06:35:57 51°14.45 2°54.71 31.669899 0.697509 4.16431 -0.578993
2003-07-01 06:36:57 51°14.44 2°54.48 32.214157 0.697509 4.164376 -0.545283
2003-07-01 06:37:57 51°14.42 2°54.34 32.10573 0.697509 4.164775 -0.545283
2003-07-01 06:38:57 51°14.4 2°54.3 31.63537 0.6973 4.163705 -0.578993
2003-07-01 06:39:57 51°14.39 2°54.27 32.264015 0.697404 4.164307 -0.578993
2003-07-01 06:40:57 51°14.38 2°54.25 33.021644 0.697195 4.16317 -0.578993
2003-07-01 06:41:57 51°14.33 2°54.22 32.450686 0.697404 4.165038 -0.578993
2003-07-01 06:42:57 51°14.27 2°54.05 31.973221 0.697404 4.165304 -0.545283
2003-07-01 06:43:57 51°14.19 2°53.8 31.450446 0.697404 4.166168 -0.545283
2003-07-01 06:44:57 51°14.08 2°53.5 30.600353 0.697404 4.166368 -0.578993
2003-07-01 06:45:57 51°13.97 2°53.2 31.918977 0.697509 4.167435 -0.578993
2003-07-01 06:46:57 51°13.86 2°52.9 31.703308 0.697613 4.168503 -0.578993
2003-07-01 06:47:57 51°13.75 2°52.59 30.655645 0.697509 4.168301 -0.578993
2003-07-01 06:48:57 51°13.64 2°52.29 31.474849 0.697404 4.167899 -0.545283
2003-07-01 06:49:57 51°13.54 2°51.98 30.961612 0.697613 4.169635 -0.578993
2003-07-01 06:50:57 51°13.43 2°51.68 30.857678 0.697404 4.168765 -0.578993
2003-07-01 06:51:57 51°13.32 2°51.38 31.041254 0.697404 4.169164 -0.545283
2003-07-01 06:52:57 51°13.22 2°51.07 31.613402 0.697405 4.169564 -0.545283
2003-07-01 06:53:57 51°13.11 2°50.77 30.851677 0.697405 4.170098 -0.545283
2003-07-01 06:54:57 51°13 2°50.46 31.351473 0.697509 4.171233 -0.578993
2003-07-01 06:55:57 51°12.9 2°50.15 32.092273 0.697405 4.171031 -0.578993
2003-07-01 06:56:57 51°12.79 2°49.85 31.821434 0.697405 4.171698 -0.578993
2003-07-01 06:57:57 51°12.68 2°49.54 31.544174 0.6973 4.171563 -0.578993
2003-07-01 06:58:57 51°12.62 2°49.21 30.873341 0.6973 4.171697 -0.578993
2003-07-01 06:59:57 51°12.57 2°48.87 30.785108 0.697196 4.171962 -0.578993
2003-07-01 07:00:57 51°12.49 2°48.54 31.233696 0.697196 4.172763 -0.578993
2003-07-01 07:01:57 51°12.38 2°48.24 31.160544 0.697091 4.172227 -0.545283
2003-07-01 07:02:57 51°12.25 2°47.91 31.312222 0.696882 4.171289 -0.545283
2003-07-01 07:03:57 51°12.12 2°47.57 30.495153 0.696882 4.171824 -0.545283
2003-07-01 07:04:57 51°12 2°47.23 31.754842 0.696778 4.171755 -0.545283
2003-07-01 07:05:57 51°11.87 2°46.89 31.794591 0.696778 4.172223 -0.578993
2003-07-01 07:06:57 51°11.75 2°46.55 32.369278 0.696673 4.172021 -0.545283
2003-07-01 07:07:57 51°11.62 2°46.21 30.248907 0.696778 4.173226 -0.545283
2003-07-01 07:08:57 51°11.5 2°45.87 31.233904 0.696673 4.173024 -0.578993
2003-07-01 07:09:57 51°11.37 2°45.53 31.435004 0.696673 4.173626 -0.545283
2003-07-01 07:10:57 51°11.25 2°45.19 31.251504 0.696674 4.174161 -0.578993
2003-07-01 07:11:57 51°11.16 2°44.93 31.319748 0.696674 4.17483 -0.578993
2003-07-01 07:12:57 51°11.11 2°44.85 30.353044 0.696674 4.176035 -0.578993
2003-07-01 07:13:57 51°11.09 2°44.83 32.013132 0.696569 4.175767 -0.578993
2003-07-01 07:14:57 51°11.07 2°44.81 30.741792 0.69636 4.17456 -0.578993
2003-07-01 07:15:57 51°11.05 2°44.8 31.259695 0.696047 4.173151 -0.612702
2003-07-01 07:16:57 51°11.02 2°44.82 31.330186 0.696151 4.175028 -0.578993
2003-07-01 07:17:57 51°11.03 2°44.88 31.709691 0.695942 4.174423 -0.578993
2003-07-01 07:18:57 51°11.08 2°44.91 30.982967 0.695838 4.173752 -0.578993
2003-07-01 07:19:57 51°11.14 2°44.94 31.587073 0.695629 4.172612 -0.578993
2003-07-01 07:20:57 51°11.18 2°44.99 31.5449 0.695525 4.17241 -0.578993
2003-07-01 07:21:57 51°11.21 2°45.03 30.875679 0.69542 4.172677 -0.545283
2003-07-01 07:22:57 51°11.24 2°45.05 31.651152 0.695211 4.171737 -0.578993
2003-07-01 07:23:57 51°11.26 2°45.07 31.18042 0.694898 4.170059 -0.578993
2003-07-01 07:24:57 51°11.25 2°45.11 31.561565 0.694898 4.169791 -0.545283
2003-07-01 07:25:57 51°11.22 2°45.13 31.710347 0.694689 4.16885 -0.578993
2003-07-01 07:26:57 51°11.18 2°45.11 31.439298 0.69448 4.168178 -0.612702
2003-07-01 07:27:57 51°11.14 2°45.06 31.248345 0.694376 4.167976 -0.578993
2003-07-01 07:28:57 51°11.12 2°44.98 31.260806 0.694271 4.16784 -0.578993
2003-07-01 07:29:57 51°11.13 2°44.89 31.557243 0.694167 4.167705 -0.545283
2003-07-01 07:30:57 51°11.14 2°44.79 31.200533 0.694062 4.167703 -0.545283
2003-07-01 07:31:57 51°11.15 2°44.68 32.197359 0.694062 4.168172 -0.578993
2003-07-01 07:32:57 51°11.15 2°44.57 31.073373 0.693853 4.167231 -0.578993
2003-07-01 07:33:57 51°11.13 2°44.46 31.454946 0.693853 4.1675 -0.578993
2003-07-01 07:34:57 51°11.1 2°44.36 31.268684 0.693853 4.167835 -0.545283
2003-07-01 07:35:57 51°11.08 2°44.26 31.932258 0.69354 4.166222 -0.545283
2003-07-01 07:36:57 51°11.07 2°44.2 31.628704 0.69354 4.166758 -0.578993
2003-07-01 07:37:57 51°11.07 2°44.16 31.01619 0.693331 4.165816 -0.578993
2003-07-01 07:38:57 51°11.07 2°44.13 30.914108 0.693436 4.166757 -0.578993
2003-07-01 07:39:57 51°11.07 2°44.09 32.44843 0.693122 4.165143 -0.578993
2003-07-01 07:40:57 51°11.06 2°44.03 31.666343 0.693227 4.166217 -0.545283
2003-07-01 07:41:57 51°11.03 2°43.98 32.134215 0.693122 4.166015 -0.578993
2003-07-01 07:42:57 51°11 2°43.94 31.747394 0.693122 4.166216 -0.578993
2003-07-01 07:43:57 51°10.99 2°43.92 31.386788 0.693122 4.166551 -0.578993
2003-07-01 07:44:57 51°10.97 2°43.91 31.823398 0.693018 4.166282 -0.578993
2003-07-01 07:45:57 51°10.96 2°43.9 30.841348 0.693018 4.166617 -0.578993
2003-07-01 07:46:57 51°10.93 2°43.88 31.96036 0.693122 4.167692 -0.578993
2003-07-01 07:47:57 51°10.88 2°43.79 31.882082 0.693122 4.167692 -0.578993
2003-07-01 07:48:57 51°10.85 2°43.56 30.872853 0.693018 4.167691 -0.578993
2003-07-01 07:49:57 51°10.81 2°43.22 31.942166 0.693018 4.168632 -0.578993
2003-07-01 07:50:57 51°10.76 2°42.84 31.752187 0.693018 4.169035 -0.578993
2003-07-01 07:51:57 51°10.72 2°42.46 31.872821 0.692913 4.168631 -0.578993
2003-07-01 07:52:57 51°10.67 2°42.08 32.222246 0.692809 4.168361 -0.578993
2003-07-01 07:53:57 51°10.62 2°41.69 31.614127 0.692705 4.168024 -0.578993
2003-07-01 07:54:57 51°10.57 2°41.31 31.705654 0.692496 4.167015 -0.578993
2003-07-01 07:55:57 51°10.51 2°40.93 30.377519 0.692391 4.166678 -0.578993
2003-07-01 07:56:57 51°10.46 2°40.55 31.752808 0.692391 4.166947 -0.578993
2003-07-01 07:57:57 51°10.4 2°40.17 32.130406 0.692182 4.165937 -0.578993
2003-07-01 07:58:57 51°10.35 2°39.79 24.059638 0.69166 4.162034 -0.578993
2003-07-01 07:59:57 51°10.28 2°39.42 24.141288 0.691764 4.163849 -0.545283
2003-07-01 08:00:57 51°10.2 2°39.04 23.955274 0.692391 4.16856 -0.578993
2003-07-01 08:01:57 51°10.13 2°38.67 24.057536 0.693331 4.174755 -0.612702
2003-07-01 08:02:57 51°10.04 2°38.31 24.051954 0.694376 4.181084 -0.578993
2003-07-01 08:03:57 51°9.94 2°37.94 23.945664 0.695629 4.188489 -0.578993
2003-07-01 08:04:57 51°9.84 2°37.59 23.954967 0.696883 4.196435 -0.545283
2003-07-01 08:05:57 51°9.74 2°37.23 24.127425 0.698136 4.203975 -0.578993
2003-07-01 08:06:57 51°9.64 2°36.87 24.44937 0.698659 4.207478 -0.578993
2003-07-01 08:07:57 51°9.53 2°36.51 24.643037 0.700226 4.217991 -0.578993
2003-07-01 08:08:57 51°9.41 2°36.16 25.586109 0.70127 4.225956 -0.545283
2003-07-01 08:09:57 51°9.35 2°35.78 26.584457 0.70221 4.232706 -0.612702
2003-07-01 08:10:57 51°9.47 2°35.46 27.937671 0.703569 4.243252 -0.612702
2003-07-01 08:11:57 51°9.67 2°35.31 29.584285 0.705658 4.260532 -0.578993
2003-07-01 08:12:57 51°9.89 2°35.3 31.297585 0.706911 4.267327 -0.612702
2003-07-01 08:13:57 51°10.1 2°35.37 32.900586 0.707329 4.271271 -0.578993
2003-07-01 08:14:57 51°10.28 2°35.53 34.602912 0.708061 4.278006 -0.578993
2003-07-01 08:15:57 51°10.46 2°35.71 36.209056 0.70921 4.287662 -0.612702
2003-07-01 08:16:57 51°10.63 2°35.88 37.853871 0.709628 4.289951 -0.578993
2003-07-01 08:17:57 51°10.81 2°36.05 39.451344 0.710359 4.296424 -0.578993
2003-07-01 08:18:57 51°10.99 2°36.21 41.233399 0.71109 4.300813 -0.578993
2003-07-01 08:19:57 51°11.17 2°36.38 42.8613 0.711926 4.306715 -0.612702
2003-07-01 08:20:57 51°11.35 2°36.56 44.403919 0.712657 4.311732 -0.612702
2003-07-01 08:21:57 51°11.52 2°36.74 46.443997 0.712866 4.313086 -0.578993
2003-07-01 08:22:57 51°11.69 2°36.92 48.810603 0.713807 4.3217 -0.578993
2003-07-01 08:23:57 51°11.87 2°37.1 -999 0.714538 4.326512 -0.612702
2003-07-01 08:24:57 51°12.04 2°37.29 -999 0.715165 4.334443 -0.578993
2003-07-01 08:25:57 51°12.21 2°37.47 -999 0.716418 4.343075 -0.612702
2003-07-01 08:26:57 51°12.39 2°37.65 -999 0.716523 4.344882 -0.612702
2003-07-01 08:27:57 51°12.56 2°37.83 -999 0.716732 4.345392 -0.578993
2003-07-01 08:28:57 51°12.74 2°38.01 -999 0.71809 4.35499 -0.578993
2003-07-01 08:29:57 51°12.91 2°38.19 -999 0.71903 4.366701 -0.612702
2003-07-01 08:30:57 51°13.09 2°38.37 -999 0.719344 4.367036 -0.612702
2003-07-01 08:31:57 51°13.26 2°38.55 -999 0.719135 4.367381 -0.612702
2003-07-01 08:32:57 51°13.45 2°38.69 -999 0.720075 4.373427 -0.612702
2003-07-01 08:33:57 51°13.64 2°38.82 18.481813 0.719866 4.373917 -0.578993
2003-07-01 08:34:57 51°13.85 2°38.88 22.369391 0.720389 4.378742 -0.578993
2003-07-01 08:35:57 51°14.06 2°38.84 27.236621 0.721015 4.383609 -0.612702
2003-07-01 08:36:57 51°14.25 2°38.66 26.483672 0.721538 4.388226 -0.578993
2003-07-01 08:37:57 51°14.37 2°38.35 -999 0.722896 4.397576 -0.612702
2003-07-01 08:38:57 51°14.36 2°37.96 -999 0.722896 4.398365 -0.612702
2003-07-01 08:39:57 51°14.26 2°37.6 -999 0.723523 4.403814 -0.578993
2003-07-01 08:40:57 51°14.14 2°37.25 -999 0.724568 4.41185 -0.578993
2003-07-01 08:41:57 51°14.02 2°36.9 -999 0.725299 4.417701 -0.612702
2003-07-01 08:42:57 51°13.9 2°36.54 19.891596 0.726239 4.424631 -0.612702
2003-07-01 08:43:57 51°13.79 2°36.19 15.791192 0.726762 4.429125 -0.578993
2003-07-01 08:44:57 51°13.67 2°35.83 15.823306 0.727598 4.435379 -0.578993
2003-07-01 08:45:57 51°13.56 2°35.48 -999 0.728224 4.440416 -0.612702
2003-07-01 08:46:57 51°13.44 2°35.13 -999 0.72906 4.446675 -0.612702
2003-07-01 08:47:57 51°13.32 2°34.77 -999 0.729896 4.453593 -0.612702
2003-07-01 08:48:57 51°13.21 2°34.43 -999 0.730837 4.461417 -0.578993
2003-07-01 08:49:57 51°13.13 2°34.06 36.347748 0.731881 4.471761 -0.612702
2003-07-01 08:50:57 51°13.23 2°33.73 5.069071 0.732195 4.473374 -0.578993
2003-07-01 08:51:57 51°13.43 2°33.6 18.107347 0.732822 4.478724 -0.612702
2003-07-01 08:52:57 51°13.64 2°33.63 22.017236 0.733135 4.48019 -0.612702
2003-07-01 08:53:57 51°13.84 2°33.75 29.65553 0.733449 4.484664 -0.578993
2003-07-01 08:54:57 51°14.03 2°33.9 24.329493 0.733449 4.484224 -0.612702
2003-07-01 08:55:57 51°14.22 2°34.04 -999 0.733658 4.486254 -0.578993
2003-07-01 08:56:57 51°14.4 2°34.19 -999 0.73418 4.492105 -0.578993
2003-07-01 08:57:57 51°14.59 2°34.33 -999 0.734598 4.496245 -0.578993
2003-07-01 08:58:57 51°14.78 2°34.47 44.865875 0.734912 4.500441 -0.612702
2003-07-01 08:59:57 51°14.96 2°34.61 46.601821 0.735225 4.503089 -0.578993
2003-07-01 09:00:57 51°15.15 2°34.75 29.977334 0.73533 4.506511 -0.578993
2003-07-01 09:01:57 51°15.33 2°34.88 15.114572 0.735538 4.507883 -0.646411
2003-07-01 09:02:57 51°15.52 2°35.02 48.23151 0.735538 4.508031 -0.578993
2003-07-01 09:03:57 51°15.7 2°35.17 -999 0.735747 4.510811 -0.578993
2003-07-01 09:04:57 51°15.88 2°35.32 -999 0.736061 4.515764 -0.612702
2003-07-01 09:05:57 51°16.06 2°35.47 -999 0.73627 4.517286 -0.578993
2003-07-01 09:06:57 51°16.24 2°35.62 6.584106 0.736479 4.5197 -0.612702
2003-07-01 09:07:57 51°16.4 2°35.81 40.684353 0.736792 4.523175 -0.578993
2003-07-01 09:08:57 51°16.53 2°36.05 9.203172 0.736897 4.523937 -0.612702
2003-07-01 09:09:57 51°16.66 2°36.29 -999 0.737001 4.52522 -0.578993
2003-07-01 09:10:57 51°16.78 2°36.54 -999 0.737524 4.530522 -0.612702
2003-07-01 09:11:57 51°16.92 2°36.79 -999 0.738673 4.539508 -0.578993
2003-07-01 09:12:57 51°17.05 2°37.03 -999 0.739927 4.548666 -0.612702
2003-07-01 09:13:57 51°17.11 2°37.33 45.819445 0.741599 4.560583 -0.612702
2003-07-01 09:14:57 51°17.16 2°37.64 39.793618 0.743375 4.573271 -0.612702
2003-07-01 09:15:57 51°17.21 2°37.95 7.152443 0.745569 4.589028 -0.646411
2003-07-01 09:16:57 51°17.27 2°38.26 37.64484 0.749331 4.61522 -0.578993
2003-07-01 09:17:57 51°17.33 2°38.56 41.583773 0.754138 4.648113 -0.578993
2003-07-01 09:18:57 51°17.38 2°38.84 25.228347 0.75675 4.666147 -0.612702
2003-07-01 09:19:57 51°17.43 2°39.12 32.78509 0.75884 4.680428 -0.612702
2003-07-01 09:20:57 51°17.49 2°39.41 44.266331 0.762184 4.70301 -0.612702
2003-07-01 09:21:57 51°17.54 2°39.68 48.241764 0.764169 4.715992 -0.612702
2003-07-01 09:22:57 51°17.59 2°39.97 -999 0.776814 4.800916 -0.578993
2003-07-01 09:23:57 51°17.63 2°40.26 -999 0.794058 4.917199 -0.612702
2003-07-01 09:24:57 51°17.64 2°40.6 -999 0.809841 5.023559 -0.578993
2003-07-01 09:25:57 51°17.62 2°40.93 -999 0.822384 5.107797 -0.578993
2003-07-01 09:26:57 51°17.62 2°41.27 -999 0.833255 5.180751 -0.578993
2003-07-01 09:27:57 51°17.61 2°41.61 -999 0.843814 5.251797 -0.578993
2003-07-01 09:28:57 51°17.61 2°41.95 -999 0.8527 5.312098 -0.612702
2003-07-01 09:29:57 51°17.6 2°42.29 48.54108 0.8573 5.342709 -0.612702
2003-07-01 09:30:57 51°17.6 2°42.63 -999 0.885635 5.534315 -0.612702
2003-07-01 09:31:57 51°17.6 2°42.94 -999 0.91115 5.70731 -0.578993
2003-07-01 09:32:57 51°17.6 2°43.24 -999 0.936668 5.88085 -0.578993
2003-07-01 09:33:57 51°17.59 2°43.54 -999 0.971394 6.11658 -0.612702
2003-07-01 09:34:57 51°17.48 2°43.82 48.04811 0.989074 6.238251 -0.612702
2003-07-01 09:35:57 51°17.35 2°44.09 43.973776 1.002779 6.331685 -0.646411
2003-07-01 09:36:57 51°17.22 2°44.36 48.038934 1.021507 6.459452 -0.578993
2003-07-01 09:37:57 51°17.09 2°44.64 -999 1.034168 6.546388 -0.612702
2003-07-01 09:38:57 51°16.96 2°44.92 -999 1.039713 6.583781 -0.612702
2003-07-01 09:39:57 51°16.83 2°45.2 -999 1.075503 6.83062 -0.612702
2003-07-01 09:40:57 51°16.7 2°45.48 -999 1.121556 7.147867 -0.578993
2003-07-01 09:41:57 51°16.57 2°45.76 -999 1.164373 7.444749 -0.578993
2003-07-01 09:42:57 51°16.44 2°46.05 -999 1.18678 7.600034 -0.612702
2003-07-01 09:43:57 51°16.31 2°46.33 49.154393 1.213795 7.787174 -0.612702
2003-07-01 09:44:57 51°16.19 2°46.63 -999 1.225733 7.870336 -0.646411
2003-07-01 09:45:57 51°16.12 2°46.96 -999 1.255267 8.076519 -0.578993
2003-07-01 09:46:57 51°16.07 2°47.31 -999 1.299679 8.387276 -0.578993
2003-07-01 09:47:57 51°16 2°47.65 -999 1.342318 8.687485 -0.612702
2003-07-01 09:48:57 51°15.94 2°47.99 -999 1.365892 8.854486 -0.578993
2003-07-01 09:49:57 51°15.88 2°48.32 -999 1.384544 8.98574 -0.612702
2003-07-01 09:50:57 51°15.81 2°48.66 46.646627 1.408542 9.154952 -0.612702
2003-07-01 09:51:57 51°15.75 2°48.99 35.597776 1.419231 9.230528 -0.612702
2003-07-01 09:52:57 51°15.69 2°49.33 35.009379 1.423738 9.262431 -0.612702
2003-07-01 09:53:57 51°15.64 2°49.68 -999 1.438306 9.365918 -0.612702
2003-07-01 09:54:57 51°15.6 2°50.02 -999 1.473839 9.619132 -0.578993
2003-07-01 09:55:57 51°15.55 2°50.36 -999 1.491869 9.749022 -0.612702
2003-07-01 09:56:57 51°15.49 2°50.7 47.906636 1.5099 9.877655 -0.612702
2003-07-01 09:57:57 51°15.44 2°51.04 49.261952 1.522691 9.968418 -0.612702
2003-07-01 09:58:57 51°15.38 2°51.37 -999 1.531183 10.028724 -0.612702
2003-07-01 09:59:57 51°15.33 2°51.7 -999 1.545547 10.130298 -0.612702
2003-07-01 10:00:57 51°15.26 2°52.03 -999 1.559283 10.227999 -0.578993
2003-07-01 10:01:57 51°15.18 2°52.36 -999 1.569664 10.302928 -0.578993
2003-07-01 10:02:57 51°15.11 2°52.69 -999 1.598396 10.510206 -0.578993
2003-07-01 10:03:57 51°15.03 2°53.02 -999 1.631013 10.745023 -0.646411
2003-07-01 10:04:57 51°14.96 2°53.35 -999 1.649787 10.879761 -0.578993
2003-07-01 10:05:57 51°14.89 2°53.65 -999 1.669821 11.023703 -0.578993
2003-07-01 10:06:57 51°14.82 2°53.93 -999 1.690171 11.169359 -0.612702
2003-07-01 10:07:57 51°14.72 2°54.19 -999 1.701501 11.250548 -0.578993
2003-07-01 10:08:57 51°14.61 2°54.45 -999 1.712936 11.333873 -0.612702
2003-07-01 10:09:57 51°14.51 2°54.71 -999 1.726469 11.430469 -0.578993
2003-07-01 10:10:57 51°14.41 2°54.97 -999 1.729302 11.450474 -0.578993
2003-07-01 10:11:57 51°14.29 2°55.2 -999 1.749236 11.594038 -0.612702